sensor_id;sensor_type;location;lat;lon;timestamp;pressure;altitude;pressure_sealevel;temperature;humidity
51359;BME280;37448;51.588;7.248;2023-12-20T00:01:23;100757.47;;;7.04;100.00
51359;BME280;37448;51.588;7.248;2023-12-20T00:03:23;100757.47;;;7.04;100.00
51359;BME280;37448;51.588;7.248;2023-12-20T00:05:24;100759.16;;;6.97;100.00
51359;BME280;37448;51.588;7.248;2023-12-20T00:07:24;100757.41;;;6.99;100.00
51359;BME280;37448;51.588;7.248;2023-12-20T00:09:25;100760.00;;;6.99;100.00
51359;BME280;37448;51.588;7.248;2023-12-20T00:11:25;100760.88;;;6.98;100.00
51359;BME280;37448;51.588;7.248;2023-12-20T00:13:25;100764.34;;;6.94;100.00
51359;BME280;37448;51.588;7.248;2023-12-20T00:15:26;100755.69;;;6.89;100.00
51359;BME280;37448;51.588;7.248;2023-12-20T00:17:26;100760.88;;;6.89;100.00
51359;BME280;37448;51.588;7.248;2023-12-20T00:19:26;100760.88;;;6.89;100.00
51359;BME280;37448;51.588;7.248;2023-12-20T00:21:27;100757.41;;;6.87;100.00
51359;BME280;37448;51.588;7.248;2023-12-20T00:23:28;100766.06;;;6.83;100.00
51359;BME280;37448;51.588;7.248;2023-12-20T00:25:28;100773.84;;;6.80;100.00
51359;BME280;37448;51.588;7.248;2023-12-20T00:27:28;100776.44;;;6.77;100.00
51359;BME280;37448;51.588;7.248;2023-12-20T00:29:30;100776.44;;;6.70;100.00
51359;BME280;37448;51.588;7.248;2023-12-20T00:31:30;100773.84;;;6.67;100.00
51359;BME280;37448;51.588;7.248;2023-12-20T00:33:30;100778.13;;;6.65;100.00
51359;BME280;37448;51.588;7.248;2023-12-20T00:35:31;100776.41;;;6.64;100.00
51359;BME280;37448;51.588;7.248;2023-12-20T00:37:31;100779.00;;;6.63;100.00
51359;BME280;37448;51.588;7.248;2023-12-20T00:39:31;100786.75;;;6.61;100.00
51359;BME280;37448;51.588;7.248;2023-12-20T00:41:33;100788.50;;;6.62;100.00
51359;BME280;37448;51.588;7.248;2023-12-20T00:43:33;100784.19;;;6.59;100.00
51359;BME280;37448;51.588;7.248;2023-12-20T00:45:33;100790.22;;;6.60;100.00
51359;BME280;37448;51.588;7.248;2023-12-20T00:47:34;100791.09;;;6.56;100.00
51359;BME280;37448;51.588;7.248;2023-12-20T00:49:34;100800.59;;;6.54;100.00
51359;BME280;37448;51.588;7.248;2023-12-20T00:51:35;100800.56;;;6.52;100.00
51359;BME280;37448;51.588;7.248;2023-12-20T00:53:35;100805.75;;;6.48;100.00
51359;BME280;37448;51.588;7.248;2023-12-20T00:55:36;100804.88;;;6.50;100.00
51359;BME280;37448;51.588;7.248;2023-12-20T00:57:36;100804.03;;;6.50;100.00
51359;BME280;37448;51.588;7.248;2023-12-20T00:59:36;100802.31;;;6.49;100.00
51359;BME280;37448;51.588;7.248;2023-12-20T01:01:37;100807.50;;;6.49;100.00
51359;BME280;37448;51.588;7.248;2023-12-20T01:03:38;100805.75;;;6.48;100.00
51359;BME280;37448;51.588;7.248;2023-12-20T01:05:39;100809.22;;;6.50;100.00
51359;BME280;37448;51.588;7.248;2023-12-20T01:07:39;100803.16;;;6.48;100.00
51359;BME280;37448;51.588;7.248;2023-12-20T01:09:40;100805.75;;;6.49;100.00
51359;BME280;37448;51.588;7.248;2023-12-20T01:11:40;100806.63;;;6.46;100.00
51359;BME280;37448;51.588;7.248;2023-12-20T01:13:41;100816.97;;;6.43;100.00
51359;BME280;37448;51.588;7.248;2023-12-20T01:15:41;100804.00;;;6.45;100.00
51359;BME280;37448;51.588;7.248;2023-12-20T01:17:41;100810.91;;;6.41;100.00
51359;BME280;37448;51.588;7.248;2023-12-20T01:19:42;100815.25;;;6.45;100.00
51359;BME280;37448;51.588;7.248;2023-12-20T01:21:43;100818.72;;;6.48;100.00
51359;BME280;37448;51.588;7.248;2023-12-20T01:23:43;100819.56;;;6.46;100.00
51359;BME280;37448;51.588;7.248;2023-12-20T01:25:43;100810.91;;;6.41;100.00
51359;BME280;37448;51.588;7.248;2023-12-20T01:27:44;100814.34;;;6.40;100.00
51359;BME280;37448;51.588;7.248;2023-12-20T01:29:44;100816.06;;;6.35;100.00
51359;BME280;37448;51.588;7.248;2023-12-20T01:31:45;100819.53;;;6.40;100.00
51359;BME280;37448;51.588;7.248;2023-12-20T01:33:45;100816.09;;;6.40;100.00
51359;BME280;37448;51.588;7.248;2023-12-20T01:35:46;100812.63;;;6.33;100.00
51359;BME280;37448;51.588;7.248;2023-12-20T01:37:46;100816.94;;;6.36;100.00
51359;BME280;37448;51.588;7.248;2023-12-20T01:39:47;100821.25;;;6.32;100.00
51359;BME280;37448;51.588;7.248;2023-12-20T01:41:47;100812.59;;;6.24;100.00
51359;BME280;37448;51.588;7.248;2023-12-20T01:43:48;100806.53;;;6.19;100.00
51359;BME280;37448;51.588;7.248;2023-12-20T01:45:48;100815.13;;;6.14;100.00
51359;BME280;37448;51.588;7.248;2023-12-20T01:47:48;100811.66;;;6.09;100.00
51359;BME280;37448;51.588;7.248;2023-12-20T01:49:49;100816.88;;;6.11;100.00
51359;BME280;37448;51.588;7.248;2023-12-20T01:51:50;100819.47;;;6.11;100.00
51359;BME280;37448;51.588;7.248;2023-12-20T01:53:50;100822.03;;;6.09;100.00
51359;BME280;37448;51.588;7.248;2023-12-20T01:55:52;100825.50;;;6.16;100.00
51359;BME280;37448;51.588;7.248;2023-12-20T01:57:55;100820.34;;;6.16;100.00
51359;BME280;37448;51.588;7.248;2023-12-20T01:59:56;100809.09;;;6.12;100.00
51359;BME280;37448;51.588;7.248;2023-12-20T02:01:57;100809.13;;;6.19;100.00
51359;BME280;37448;51.588;7.248;2023-12-20T02:03:57;100816.88;;;6.15;100.00
51359;BME280;37448;51.588;7.248;2023-12-20T02:05:59;100814.31;;;6.19;100.00
51359;BME280;37448;51.588;7.248;2023-12-20T02:08:00;100816.88;;;6.15;100.00
51359;BME280;37448;51.588;7.248;2023-12-20T02:10:03;100816.00;;;6.10;100.00
51359;BME280;37448;51.588;7.248;2023-12-20T02:12:07;100814.28;;;6.15;100.00
51359;BME280;37448;51.588;7.248;2023-12-20T02:14:07;100802.19;;;6.11;100.00
51359;BME280;37448;51.588;7.248;2023-12-20T02:16:08;100814.28;;;6.15;100.00
51359;BME280;37448;51.588;7.248;2023-12-20T02:18:08;100813.41;;;6.16;100.00
51359;BME280;37448;51.588;7.248;2023-12-20T02:20:09;100814.28;;;6.14;100.00
51359;BME280;37448;51.588;7.248;2023-12-20T02:22:10;100816.00;;;6.13;100.00
51359;BME280;37448;51.588;7.248;2023-12-20T02:24:10;100809.09;;;6.15;100.00
51359;BME280;37448;51.588;7.248;2023-12-20T02:26:12;100809.09;;;6.12;100.00
51359;BME280;37448;51.588;7.248;2023-12-20T02:28:14;100813.41;;;6.10;100.00
51359;BME280;37448;51.588;7.248;2023-12-20T02:30:14;100818.56;;;6.10;100.00
51359;BME280;37448;51.588;7.248;2023-12-20T02:32:15;100810.81;;;6.10;100.00
51359;BME280;37448;51.588;7.248;2023-12-20T02:34:16;100817.72;;;6.11;100.00
51359;BME280;37448;51.588;7.248;2023-12-20T02:36:17;100809.97;;;6.13;100.00
51359;BME280;37448;51.588;7.248;2023-12-20T02:38:17;100813.41;;;6.12;100.00
51359;BME280;37448;51.588;7.248;2023-12-20T02:40:18;100812.53;;;6.11;100.00
51359;BME280;37448;51.588;7.248;2023-12-20T02:42:18;100813.41;;;6.10;100.00
51359;BME280;37448;51.588;7.248;2023-12-20T02:44:18;100815.13;;;6.08;100.00
51359;BME280;37448;51.588;7.248;2023-12-20T02:46:19;100811.69;;;6.08;100.00
51359;BME280;37448;51.588;7.248;2023-12-20T02:48:19;100804.75;;;6.08;100.00
51359;BME280;37448;51.588;7.248;2023-12-20T02:50:20;100816.00;;;6.09;100.00
51359;BME280;37448;51.588;7.248;2023-12-20T02:52:20;100819.44;;;6.06;100.00
51359;BME280;37448;51.588;7.248;2023-12-20T02:54:21;100812.53;;;6.05;100.00
51359;BME280;37448;51.588;7.248;2023-12-20T02:56:21;100813.38;;;6.06;100.00
51359;BME280;37448;51.588;7.248;2023-12-20T02:58:21;100808.19;;;5.99;100.00
51359;BME280;37448;51.588;7.248;2023-12-20T03:00:22;100807.31;;;6.00;100.00
51359;BME280;37448;51.588;7.248;2023-12-20T03:02:22;100809.91;;;5.97;100.00
51359;BME280;37448;51.588;7.248;2023-12-20T03:04:22;100811.63;;;5.95;100.00
51359;BME280;37448;51.588;7.248;2023-12-20T03:06:23;100810.78;;;5.98;100.00
51359;BME280;37448;51.588;7.248;2023-12-20T03:08:23;100809.06;;;5.97;100.00
51359;BME280;37448;51.588;7.248;2023-12-20T03:10:24;100809.00;;;5.94;100.00
51359;BME280;37448;51.588;7.248;2023-12-20T03:12:24;100803.88;;;5.97;100.00
51359;BME280;37448;51.588;7.248;2023-12-20T03:14:24;100804.72;;;5.94;100.00
51359;BME280;37448;51.588;7.248;2023-12-20T03:16:25;100804.72;;;5.94;100.00
51359;BME280;37448;51.588;7.248;2023-12-20T03:18:25;100804.69;;;5.91;100.00
51359;BME280;37448;51.588;7.248;2023-12-20T03:20:29;100800.34;;;5.88;100.00
51359;BME280;37448;51.588;7.248;2023-12-20T03:22:33;100800.38;;;5.90;100.00
51359;BME280;37448;51.588;7.248;2023-12-20T03:24:33;100792.59;;;5.85;100.00
51359;BME280;37448;51.588;7.248;2023-12-20T03:26:34;100803.78;;;5.81;100.00
51359;BME280;37448;51.588;7.248;2023-12-20T03:28:35;100820.16;;;5.82;100.00
51359;BME280;37448;51.588;7.248;2023-12-20T03:30:36;100808.94;;;5.78;100.00
51359;BME280;37448;51.588;7.248;2023-12-20T03:32:38;100809.78;;;5.71;100.00
51359;BME280;37448;51.588;7.248;2023-12-20T03:34:39;100804.59;;;5.72;100.00
51359;BME280;37448;51.588;7.248;2023-12-20T03:36:40;100801.09;;;5.66;100.00
51359;BME280;37448;51.588;7.248;2023-12-20T03:38:40;100801.16;;;5.70;100.00
51359;BME280;37448;51.588;7.248;2023-12-20T03:40:40;100797.69;;;5.68;100.00
51359;BME280;37448;51.588;7.248;2023-12-20T03:42:41;100791.63;;;5.68;100.00
51359;BME280;37448;51.588;7.248;2023-12-20T03:44:41;100795.06;;;5.67;100.00
51359;BME280;37448;51.588;7.248;2023-12-20T03:46:41;100793.34;;;5.63;100.00
51359;BME280;37448;51.588;7.248;2023-12-20T03:48:42;100787.28;;;5.60;100.00
51359;BME280;37448;51.588;7.248;2023-12-20T03:50:42;100796.75;;;5.58;100.00
51359;BME280;37448;51.588;7.248;2023-12-20T03:52:42;100787.25;;;5.54;100.00
51359;BME280;37448;51.588;7.248;2023-12-20T03:54:43;100803.63;;;5.50;100.00
51359;BME280;37448;51.588;7.248;2023-12-20T03:56:43;100797.59;;;5.51;100.00
51359;BME280;37448;51.588;7.248;2023-12-20T03:58:43;100804.47;;;5.51;100.00
51359;BME280;37448;51.588;7.248;2023-12-20T04:00:44;100806.19;;;5.47;100.00
51359;BME280;37448;51.588;7.248;2023-12-20T04:02:44;100796.72;;;5.49;100.00
51359;BME280;37448;51.588;7.248;2023-12-20T04:04:45;100785.47;;;5.44;100.00
51359;BME280;37448;51.588;7.248;2023-12-20T04:06:45;100789.78;;;5.45;100.00
51359;BME280;37448;51.588;7.248;2023-12-20T04:08:45;100791.50;;;5.44;100.00
51359;BME280;37448;51.588;7.248;2023-12-20T04:10:46;100791.50;;;5.43;100.00
51359;BME280;37448;51.588;7.248;2023-12-20T04:12:46;100783.75;;;5.41;100.00
51359;BME280;37448;51.588;7.248;2023-12-20T04:14:46;100794.91;;;5.39;100.00
51359;BME280;37448;51.588;7.248;2023-12-20T04:16:47;100803.53;;;5.38;100.00
51359;BME280;37448;51.588;7.248;2023-12-20T04:18:47;100784.50;;;5.31;100.00
51359;BME280;37448;51.588;7.248;2023-12-20T04:20:48;100781.97;;;5.34;100.00
51359;BME280;37448;51.588;7.248;2023-12-20T04:22:49;100791.41;;;5.32;100.00
51359;BME280;37448;51.588;7.248;2023-12-20T04:24:49;100786.28;;;5.34;100.00
51359;BME280;37448;51.588;7.248;2023-12-20T04:26:50;100784.53;;;5.29;100.00
51359;BME280;37448;51.588;7.248;2023-12-20T04:28:50;100783.69;;;5.34;100.00
51359;BME280;37448;51.588;7.248;2023-12-20T04:30:51;100784.56;;;5.36;100.00
51359;BME280;37448;51.588;7.248;2023-12-20T04:32:51;100779.41;;;5.39;100.00
51359;BME280;37448;51.588;7.248;2023-12-20T04:34:51;100787.19;;;5.40;100.00
51359;BME280;37448;51.588;7.248;2023-12-20T04:36:52;100797.53;;;5.43;100.00
51359;BME280;37448;51.588;7.248;2023-12-20T04:38:53;100794.09;;;5.46;100.00
51359;BME280;37448;51.588;7.248;2023-12-20T04:40:53;100789.81;;;5.48;100.00
51359;BME280;37448;51.588;7.248;2023-12-20T04:42:54;100792.41;;;5.48;100.00
51359;BME280;37448;51.588;7.248;2023-12-20T04:44:54;100798.44;;;5.50;100.00
51359;BME280;37448;51.588;7.248;2023-12-20T04:46:54;100795.03;;;5.54;100.00
51359;BME280;37448;51.588;7.248;2023-12-20T04:48:56;100805.34;;;5.51;100.00
51359;BME280;37448;51.588;7.248;2023-12-20T04:50:57;100792.41;;;5.51;100.00
51359;BME280;37448;51.588;7.248;2023-12-20T04:52:57;100790.66;;;5.45;100.00
51359;BME280;37448;51.588;7.248;2023-12-20T04:54:58;100794.13;;;5.54;100.00
51359;BME280;37448;51.588;7.248;2023-12-20T04:56:59;100802.78;;;5.54;100.00
51359;BME280;37448;51.588;7.248;2023-12-20T04:58:59;100796.75;;;5.52;100.00
51359;BME280;37448;51.588;7.248;2023-12-20T05:01:00;100792.38;;;5.47;100.00
51359;BME280;37448;51.588;7.248;2023-12-20T05:03:01;100792.41;;;5.50;100.00
51359;BME280;37448;51.588;7.248;2023-12-20T05:05:01;100801.84;;;5.46;100.00
51359;BME280;37448;51.588;7.248;2023-12-20T05:07:02;100788.03;;;5.44;100.00
51359;BME280;37448;51.588;7.248;2023-12-20T05:09:04;100802.69;;;5.40;100.00
51359;BME280;37448;51.588;7.248;2023-12-20T05:11:05;100796.63;;;5.37;100.00
51359;BME280;37448;51.588;7.248;2023-12-20T05:13:06;100796.63;;;5.34;100.00
51359;BME280;37448;51.588;7.248;2023-12-20T05:15:07;100794.88;;;5.29;100.00
51359;BME280;37448;51.588;7.248;2023-12-20T05:17:07;100787.97;;;5.28;100.00
51359;BME280;37448;51.588;7.248;2023-12-20T05:19:07;100794.88;;;5.29;100.00
51359;BME280;37448;51.588;7.248;2023-12-20T05:21:08;100796.56;;;5.27;100.00
51359;BME280;37448;51.588;7.248;2023-12-20T05:23:08;100796.59;;;5.30;100.00
51359;BME280;37448;51.588;7.248;2023-12-20T05:25:09;100802.63;;;5.29;100.00
51359;BME280;37448;51.588;7.248;2023-12-20T05:27:10;100781.94;;;5.29;100.00
51359;BME280;37448;51.588;7.248;2023-12-20T05:29:11;100787.97;;;5.31;100.00
51359;BME280;37448;51.588;7.248;2023-12-20T05:31:11;100789.72;;;5.33;100.00
51359;BME280;37448;51.588;7.248;2023-12-20T05:33:12;100782.81;;;5.35;100.00
51359;BME280;37448;51.588;7.248;2023-12-20T05:35:12;100793.19;;;5.38;100.00
51359;BME280;37448;51.588;7.248;2023-12-20T05:37:13;100783.66;;;5.32;100.00
51359;BME280;37448;51.588;7.248;2023-12-20T05:39:13;100786.31;;;5.40;100.00
51359;BME280;37448;51.588;7.248;2023-12-20T05:41:14;100775.09;;;5.36;100.00
51359;BME280;37448;51.588;7.248;2023-12-20T05:43:14;100780.25;;;5.36;100.00
51359;BME280;37448;51.588;7.248;2023-12-20T05:45:15;100782.84;;;5.41;100.00
51359;BME280;37448;51.588;7.248;2023-12-20T05:47:16;100777.69;;;5.41;100.00
51359;BME280;37448;51.588;7.248;2023-12-20T05:49:17;100772.53;;;5.42;100.00
51359;BME280;37448;51.588;7.248;2023-12-20T05:51:17;100775.13;;;5.42;100.00
51359;BME280;37448;51.588;7.248;2023-12-20T05:53:18;100778.59;;;5.44;100.00
51359;BME280;37448;51.588;7.248;2023-12-20T05:55:18;100783.75;;;5.48;100.00
51359;BME280;37448;51.588;7.248;2023-12-20T05:57:19;100784.66;;;5.48;100.00
51359;BME280;37448;51.588;7.248;2023-12-20T05:59:19;100789.81;;;5.48;100.00
51359;BME280;37448;51.588;7.248;2023-12-20T06:01:20;100791.56;;;5.52;100.00
51359;BME280;37448;51.588;7.248;2023-12-20T06:03:20;100793.28;;;5.50;100.00
51359;BME280;37448;51.588;7.248;2023-12-20T06:05:20;100790.69;;;5.50;100.00
51359;BME280;37448;51.588;7.248;2023-12-20T06:07:21;100788.97;;;5.51;100.00
51359;BME280;37448;51.588;7.248;2023-12-20T06:09:21;100782.06;;;5.48;100.00
51359;BME280;37448;51.588;7.248;2023-12-20T06:11:22;100776.00;;;5.48;100.00
51359;BME280;37448;51.588;7.248;2023-12-20T06:13:22;100784.66;;;5.48;100.00
51359;BME280;37448;51.588;7.248;2023-12-20T06:15:22;100790.66;;;5.49;100.00
51359;BME280;37448;51.588;7.248;2023-12-20T06:17:23;100790.69;;;5.50;100.00
51359;BME280;37448;51.588;7.248;2023-12-20T06:19:24;100795.00;;;5.53;100.00
51359;BME280;37448;51.588;7.248;2023-12-20T06:21:24;100789.84;;;5.51;100.00
51359;BME280;37448;51.588;7.248;2023-12-20T06:23:24;100784.63;;;5.50;100.00
51359;BME280;37448;51.588;7.248;2023-12-20T06:25:25;100789.84;;;5.51;100.00
51359;BME280;37448;51.588;7.248;2023-12-20T06:27:25;100795.03;;;5.54;100.00
51359;BME280;37448;51.588;7.248;2023-12-20T06:29:26;100799.31;;;5.52;100.00
51359;BME280;37448;51.588;7.248;2023-12-20T06:31:26;100790.69;;;5.50;100.00
51359;BME280;37448;51.588;7.248;2023-12-20T06:33:27;100789.84;;;5.51;100.00
51359;BME280;37448;51.588;7.248;2023-12-20T06:35:27;100777.78;;;5.53;100.00
51359;BME280;37448;51.588;7.248;2023-12-20T06:37:28;100794.16;;;5.52;100.00
51359;BME280;37448;51.588;7.248;2023-12-20T06:39:28;100786.38;;;5.52;100.00
51359;BME280;37448;51.588;7.248;2023-12-20T06:41:30;100792.41;;;5.50;100.00
51359;BME280;37448;51.588;7.248;2023-12-20T06:43:31;100795.88;;;5.50;100.00
51359;BME280;37448;51.588;7.248;2023-12-20T06:45:32;100795.00;;;5.48;100.00
51359;BME280;37448;51.588;7.248;2023-12-20T06:47:33;100804.47;;;5.51;100.00
51359;BME280;37448;51.588;7.248;2023-12-20T06:49:33;100802.75;;;5.48;100.00
51359;BME280;37448;51.588;7.248;2023-12-20T06:51:33;100790.69;;;5.47;100.00
51359;BME280;37448;51.588;7.248;2023-12-20T06:53:34;100801.91;;;5.52;100.00
51359;BME280;37448;51.588;7.248;2023-12-20T06:55:35;100793.28;;;5.55;100.00
51359;BME280;37448;51.588;7.248;2023-12-20T06:57:36;100794.97;;;5.50;100.00
51359;BME280;37448;51.588;7.248;2023-12-20T06:59:40;100788.13;;;5.53;100.00
51359;BME280;37448;51.588;7.248;2023-12-20T07:01:41;100792.44;;;5.56;100.00
51359;BME280;37448;51.588;7.248;2023-12-20T07:03:42;100788.97;;;5.51;100.00
51359;BME280;37448;51.588;7.248;2023-12-20T07:05:42;100784.69;;;5.54;100.00
51359;BME280;37448;51.588;7.248;2023-12-20T07:07:42;100787.25;;;5.53;100.00
51359;BME280;37448;51.588;7.248;2023-12-20T07:09:43;100780.34;;;5.55;100.00
51359;BME280;37448;51.588;7.248;2023-12-20T07:11:43;100782.94;;;5.53;100.00
51359;BME280;37448;51.588;7.248;2023-12-20T07:13:43;100782.94;;;5.52;100.00
51359;BME280;37448;51.588;7.248;2023-12-20T07:15:44;100780.34;;;5.55;100.00
51359;BME280;37448;51.588;7.248;2023-12-20T07:17:44;100774.31;;;5.51;100.00
51359;BME280;37448;51.588;7.248;2023-12-20T07:19:44;100772.63;;;5.56;100.00
51359;BME280;37448;51.588;7.248;2023-12-20T07:21:45;100773.47;;;5.57;100.00
51359;BME280;37448;51.588;7.248;2023-12-20T07:23:45;100780.38;;;5.56;100.00
51359;BME280;37448;51.588;7.248;2023-12-20T07:25:45;100782.06;;;5.53;100.00
51359;BME280;37448;51.588;7.248;2023-12-20T07:27:46;100786.41;;;5.55;100.00
51359;BME280;37448;51.588;7.248;2023-12-20T07:29:46;100785.56;;;5.56;100.00
51359;BME280;37448;51.588;7.248;2023-12-20T07:31:46;100779.50;;;5.56;100.00
51359;BME280;37448;51.588;7.248;2023-12-20T07:33:47;100792.47;;;5.59;100.00
51359;BME280;37448;51.588;7.248;2023-12-20T07:35:47;100788.13;;;5.56;100.00
51359;BME280;37448;51.588;7.248;2023-12-20T07:37:48;100789.00;;;5.58;100.00
51359;BME280;37448;51.588;7.248;2023-12-20T07:39:48;100789.88;;;5.57;100.00
51359;BME280;37448;51.588;7.248;2023-12-20T07:41:49;100799.34;;;5.58;100.00
51359;BME280;37448;51.588;7.248;2023-12-20T07:43:49;100791.59;;;5.55;100.00
51359;BME280;37448;51.588;7.248;2023-12-20T07:45:49;100796.78;;;5.60;100.00
51359;BME280;37448;51.588;7.248;2023-12-20T07:47:50;100792.47;;;5.60;100.00
51359;BME280;37448;51.588;7.248;2023-12-20T07:49:53;100791.59;;;5.58;100.00
51359;BME280;37448;51.588;7.248;2023-12-20T07:51:53;100784.69;;;5.60;100.00
51359;BME280;37448;51.588;7.248;2023-12-20T07:53:54;100791.63;;;5.65;100.00
51359;BME280;37448;51.588;7.248;2023-12-20T07:55:55;100783.00;;;5.64;100.00
51359;BME280;37448;51.588;7.248;2023-12-20T07:57:55;100791.63;;;5.65;100.00
51359;BME280;37448;51.588;7.248;2023-12-20T07:59:56;100800.25;;;5.70;100.00
51359;BME280;37448;51.588;7.248;2023-12-20T08:01:56;100789.03;;;5.68;100.00
51359;BME280;37448;51.588;7.248;2023-12-20T08:03:56;100788.19;;;5.67;100.00
51359;BME280;37448;51.588;7.248;2023-12-20T08:05:57;100771.81;;;5.70;100.00
51359;BME280;37448;51.588;7.248;2023-12-20T08:07:59;100779.56;;;5.70;100.00
51359;BME280;37448;51.588;7.248;2023-12-20T08:10:00;100787.38;;;5.73;100.00
51359;BME280;37448;51.588;7.248;2023-12-20T08:12:00;100787.34;;;5.71;100.00
51359;BME280;37448;51.588;7.248;2023-12-20T08:14:00;100776.16;;;5.74;100.00
51359;BME280;37448;51.588;7.248;2023-12-20T08:16:01;100779.63;;;5.76;100.00
51359;BME280;37448;51.588;7.248;2023-12-20T08:18:03;100776.16;;;5.77;100.00
51359;BME280;37448;51.588;7.248;2023-12-20T08:20:04;100782.19;;;5.78;100.00
51359;BME280;37448;51.588;7.248;2023-12-20T08:22:04;100777.88;;;5.77;100.00
51359;BME280;37448;51.588;7.248;2023-12-20T08:24:05;100779.63;;;5.76;100.00
51359;BME280;37448;51.588;7.248;2023-12-20T08:26:09;100777.91;;;5.78;100.00
51359;BME280;37448;51.588;7.248;2023-12-20T08:28:09;100778.78;;;5.80;100.00
51359;BME280;37448;51.588;7.248;2023-12-20T08:30:10;100778.75;;;5.76;100.00
51359;BME280;37448;51.588;7.248;2023-12-20T08:32:12;100767.56;;;5.81;100.00
51359;BME280;37448;51.588;7.248;2023-12-20T08:34:13;100781.34;;;5.82;100.00
51359;BME280;37448;51.588;7.248;2023-12-20T08:36:15;100783.09;;;5.84;100.00
51359;BME280;37448;51.588;7.248;2023-12-20T08:38:18;100777.06;;;5.82;100.00
51359;BME280;37448;51.588;7.248;2023-12-20T08:40:18;100777.94;;;5.83;100.00
51359;BME280;37448;51.588;7.248;2023-12-20T08:42:18;100780.50;;;5.84;100.00
51359;BME280;37448;51.588;7.248;2023-12-20T08:44:19;100781.34;;;5.82;100.00
51359;BME280;37448;51.588;7.248;2023-12-20T08:46:21;100790.00;;;5.85;100.00
51359;BME280;37448;51.588;7.248;2023-12-20T08:48:21;100785.72;;;5.86;100.00
51359;BME280;37448;51.588;7.248;2023-12-20T08:50:22;100788.28;;;5.87;100.00
51359;BME280;37448;51.588;7.248;2023-12-20T08:52:22;100782.25;;;5.88;100.00
51359;BME280;37448;51.588;7.248;2023-12-20T08:54:24;100783.13;;;5.91;100.00
51359;BME280;37448;51.588;7.248;2023-12-20T08:56:24;100783.09;;;5.87;100.00
51359;BME280;37448;51.588;7.248;2023-12-20T08:58:25;100785.72;;;5.92;100.00
51359;BME280;37448;51.588;7.248;2023-12-20T09:00:25;100773.63;;;5.88;100.00
51359;BME280;37448;51.588;7.248;2023-12-20T09:02:27;100768.47;;;5.91;100.00
51359;BME280;37448;51.588;7.248;2023-12-20T09:04:29;100764.19;;;5.95;100.00
51359;BME280;37448;51.588;7.248;2023-12-20T09:06:29;100770.19;;;5.94;100.00
51359;BME280;37448;51.588;7.248;2023-12-20T09:08:29;100773.66;;;5.96;100.00
51359;BME280;37448;51.588;7.248;2023-12-20T09:10:30;100771.94;;;5.95;100.00
51359;BME280;37448;51.588;7.248;2023-12-20T09:12:30;100772.78;;;5.94;100.00
51359;BME280;37448;51.588;7.248;2023-12-20T09:14:31;100771.09;;;5.96;100.00
51359;BME280;37448;51.588;7.248;2023-12-20T09:16:31;100770.22;;;5.97;100.00
51359;BME280;37448;51.588;7.248;2023-12-20T09:18:31;100768.47;;;5.97;100.00
51359;BME280;37448;51.588;7.248;2023-12-20T09:20:32;100767.63;;;5.95;100.00
51359;BME280;37448;51.588;7.248;2023-12-20T09:22:33;100764.19;;;5.98;100.00
51359;BME280;37448;51.588;7.248;2023-12-20T09:24:33;100760.72;;;5.96;100.00
51359;BME280;37448;51.588;7.248;2023-12-20T09:26:34;100761.59;;;5.99;100.00
51359;BME280;37448;51.588;7.248;2023-12-20T09:28:34;100752.94;;;5.94;100.00
51359;BME280;37448;51.588;7.248;2023-12-20T09:30:37;100755.56;;;5.96;100.00
51359;BME280;37448;51.588;7.248;2023-12-20T09:32:39;100754.69;;;6.01;100.00
51359;BME280;37448;51.588;7.248;2023-12-20T09:34:40;100758.16;;;6.02;100.00
51359;BME280;37448;51.588;7.248;2023-12-20T09:36:41;100763.34;;;6.02;100.00
51359;BME280;37448;51.588;7.248;2023-12-20T09:38:46;100761.59;;;6.06;100.00
51359;BME280;37448;51.588;7.248;2023-12-20T09:40:46;100756.41;;;6.06;100.00
51359;BME280;37448;51.588;7.248;2023-12-20T09:43:08;100744.38;;;6.08;100.00
51359;BME280;37448;51.588;7.248;2023-12-20T09:45:10;100746.94;;;6.09;100.00
51359;BME280;37448;51.588;7.248;2023-12-20T09:47:15;100758.16;;;6.11;100.00
51359;BME280;37448;51.588;7.248;2023-12-20T09:49:19;100751.28;;;6.13;100.00
51359;BME280;37448;51.588;7.248;2023-12-20T09:51:20;100752.16;;;6.17;100.00
51359;BME280;37448;51.588;7.248;2023-12-20T09:53:22;100753.00;;;6.13;100.00
51359;BME280;37448;51.588;7.248;2023-12-20T09:55:25;100746.97;;;6.15;100.00
51359;BME280;37448;51.588;7.248;2023-12-20T09:57:25;100741.78;;;6.12;100.00
51359;BME280;37448;51.588;7.248;2023-12-20T09:59:26;100748.69;;;6.16;100.00
51359;BME280;37448;51.588;7.248;2023-12-20T10:01:27;100747.84;;;6.13;100.00
51359;BME280;37448;51.588;7.248;2023-12-20T10:03:29;100770.28;;;6.17;100.00
51359;BME280;37448;51.588;7.248;2023-12-20T10:05:32;100753.88;;;6.16;100.00
51359;BME280;37448;51.588;7.248;2023-12-20T10:07:33;100753.88;;;6.16;100.00
51359;BME280;37448;51.588;7.248;2023-12-20T10:09:33;100757.34;;;6.19;100.00
51359;BME280;37448;51.588;7.248;2023-12-20T10:11:35;100755.59;;;6.17;100.00
51359;BME280;37448;51.588;7.248;2023-12-20T10:13:41;100745.22;;;6.17;100.00
51359;BME280;37448;51.588;7.248;2023-12-20T10:15:41;100743.53;;;6.20;100.00
51359;BME280;37448;51.588;7.248;2023-12-20T10:17:42;100741.81;;;6.17;100.00
51359;BME280;37448;51.588;7.248;2023-12-20T10:19:42;100750.44;;;6.21;100.00
51359;BME280;37448;51.588;7.248;2023-12-20T10:21:43;100750.44;;;6.24;100.00
51359;BME280;37448;51.588;7.248;2023-12-20T10:23:45;100753.88;;;6.18;100.00
51359;BME280;37448;51.588;7.248;2023-12-20T10:25:55;100740.94;;;6.18;100.00
51359;BME280;37448;51.588;7.248;2023-12-20T10:30:09;100739.22;;;6.19;100.00
51359;BME280;37448;51.588;7.248;2023-12-20T10:32:24;100748.72;;;6.23;100.00
51359;BME280;37448;51.588;7.248;2023-12-20T10:34:24;100742.69;;;6.21;100.00